Time;durP1;ratioP1;P1;durP2;ratioP2;P2;SDS_P1;SDS_P2;PMS_P1;PMS_P2;Temp;Humidity;BMP_temperature;BMP_pressure;BME280_temperature;BME280_humidity;BME280_pressure;Samples;Min_cycle;Max_cycle;Signal;HPM_P1;HPM_P2
2023/05/06 00:00:25;;;;;;;9.75;8.43;;;12.50;99.90;;;;;;4992270;28;20081;-68
2023/05/06 00:02:51;;;;;;;11.15;9.00;;;12.50;99.90;;;;;;4991162;28;20045;-68
2023/05/06 00:05:29;;;;;;;11.48;8.60;;;12.30;99.90;;;;;;4975620;28;20080;-68
2023/05/06 00:07:58;;;;;;;10.10;8.13;;;12.30;99.90;;;;;;4976035;28;20050;-69
2023/05/06 00:10:25;;;;;;;12.02;8.57;;;;;;;;;;4993109;28;20034;-68
2023/05/06 00:12:51;;;;;;;13.07;8.35;;;12.50;99.90;;;;;;4992813;28;20070;-68
2023/05/06 00:15:17;;;;;;;13.32;9.20;;;12.60;99.90;;;;;;4991697;28;20046;-68
2023/05/06 00:17:43;;;;;;;13.07;7.78;;;12.50;99.90;;;;;;4992997;28;20556;-68
2023/05/06 00:20:09;;;;;;;11.27;8.15;;;12.60;99.90;;;;;;4992655;28;20034;-69
2023/05/06 00:22:38;;;;;;;10.35;8.20;;;12.70;99.90;;;;;;4991687;28;20072;-68
2023/05/06 00:25:07;;;;;;;11.02;8.75;;;12.60;99.90;;;;;;4975620;28;20042;-67
2023/05/06 00:27:39;;;;;;;14.88;8.63;;;12.60;99.90;;;;;;4991934;28;20065;-68
2023/05/06 00:30:08;;;;;;;13.73;10.05;;;12.40;99.90;;;;;;4992420;28;20077;-67
2023/05/06 00:32:35;;;;;;;13.35;9.93;;;12.70;99.90;;;;;;4991157;28;20034;-70
2023/05/06 00:35:13;;;;;;;;;;;;;;;;;;;;;
2023/05/06 00:37:50;;;;;;;12.32;9.93;;;;;;;;;;4991242;28;20121;-67
2023/05/06 00:40:19;;;;;;;12.63;9.60;;;12.60;99.90;;;;;;4974736;28;20104;-67
2023/05/06 00:42:47;;;;;;;14.13;9.80;;;12.60;99.90;;;;;;4991158;28;20045;-67
2023/05/06 00:45:18;;;;;;;12.82;9.13;;;12.80;99.90;;;;;;4991239;28;20038;-67
2023/05/06 00:47:47;;;;;;;13.18;10.48;;;12.50;99.90;;;;;;4991715;28;20074;-67
2023/05/06 00:50:13;;;;;;;13.15;9.52;;;12.70;99.90;;;;;;4991272;28;20416;-68
2023/05/06 00:52:39;;;;;;;13.77;10.10;;;12.80;99.90;;;;;;4976012;28;20447;-67
2023/05/06 00:55:10;;;;;;;15.50;10.60;;;12.60;99.90;;;;;;4974895;28;20053;-67
2023/05/06 00:57:53;;;;;;;;;;;;;;;;;;;;;
2023/05/06 01:00:31;;;;;;;15.15;10.23;;;12.80;99.90;;;;;;4993433;28;20054;-67
2023/05/06 01:03:00;;;;;;;14.02;10.35;;;12.60;99.90;;;;;;4996294;28;20074;-68
2023/05/06 01:05:45;;;;;;;16.25;10.27;;;12.80;99.90;;;;;;4995121;28;20093;-67
2023/05/06 01:08:28;;;;;;;13.70;10.95;;;12.80;99.90;;;;;;5011797;28;20053;-68
2023/05/06 01:11:03;;;;;;;14.65;10.02;;;12.90;99.90;;;;;;4994632;28;20407;-68
2023/05/06 01:13:51;;;;;;;18.48;12.07;;;12.60;99.90;;;;;;4995070;28;20038;-67
2023/05/06 01:16:22;;;;;;;12.00;10.18;;;12.80;99.90;;;;;;4994985;28;20053;-68
2023/05/06 01:18:51;;;;;;;15.50;10.55;;;12.60;99.90;;;;;;4994934;28;20046;-68
2023/05/06 01:21:24;;;;;;;14.55;11.18;;;12.70;99.90;;;;;;4995003;28;20042;-67
2023/05/06 01:23:57;;;;;;;14.40;11.05;;;12.50;99.90;;;;;;4994763;28;20053;-67
2023/05/06 01:26:26;;;;;;;14.52;10.02;;;;;;;;;;4993930;28;20593;-68
2023/05/06 01:29:08;;;;;;;;;;;;;;;;;;;;;
2023/05/06 01:31:57;;;;;;;11.70;9.30;;;12.60;99.90;;;;;;4996032;28;20488;-68
2023/05/06 01:34:52;;;;;;;13.65;10.45;;;12.70;99.90;;;;;;4964583;28;20046;-67
2023/05/06 01:37:29;;;;;;;12.75;10.07;;;12.60;99.90;;;;;;4994935;28;20038;-70
2023/05/06 01:39:58;;;;;;;12.48;9.75;;;12.50;99.90;;;;;;4995651;28;20499;-70
2023/05/06 01:42:39;;;;;;;11.85;9.63;;;12.40;99.90;;;;;;4994934;28;20061;-67
2023/05/06 01:45:06;;;;;;;13.00;9.27;;;;;;;;;;4978261;28;20046;-67
2023/05/06 01:47:43;;;;;;;15.98;10.95;;;12.40;99.90;;;;;;4978365;28;20038;-67
2023/05/06 01:50:12;;;;;;;12.82;9.38;;;12.60;99.90;;;;;;4994574;28;20038;-69
2023/05/06 01:53:04;;;;;;;13.60;10.30;;;12.60;99.90;;;;;;4995342;28;20117;-67
2023/05/06 01:55:48;;;;;;;14.00;10.32;;;12.70;99.90;;;;;;4993305;28;20050;-68
2023/05/06 01:58:19;;;;;;;12.07;9.52;;;12.40;99.90;;;;;;4978283;28;20389;-67
2023/05/06 02:00:51;;;;;;;13.68;10.63;;;12.50;99.90;;;;;;4977729;28;20054;-67
2023/05/06 02:03:23;;;;;;;13.50;9.52;;;12.50;99.90;;;;;;4994251;28;20038;-67
2023/05/06 02:05:57;;;;;;;14.25;10.60;;;12.40;99.90;;;;;;4977878;28;20038;-67
2023/05/06 02:08:25;;;;;;;12.55;9.65;;;12.40;99.90;;;;;;4995181;28;20141;-68
2023/05/06 02:11:07;;;;;;;14.25;10.63;;;12.40;99.90;;;;;;4993981;28;20042;-67
2023/05/06 02:14:00;;;;;;;13.50;11.00;;;12.60;99.90;;;;;;4995154;28;20093;-67
2023/05/06 02:16:34;;;;;;;14.75;10.63;;;12.50;99.90;;;;;;4993215;28;20054;-67
2023/05/06 02:19:08;;;;;;;19.10;11.77;;;12.40;99.90;;;;;;4993981;28;20129;-67
2023/05/06 02:21:39;;;;;;;12.88;9.45;;;12.40;99.90;;;;;;4995082;28;20034;-67
2023/05/06 02:24:10;;;;;;;14.52;10.63;;;12.40;99.90;;;;;;4995125;28;20045;-69
2023/05/06 02:26:38;;;;;;;18.65;11.90;;;12.40;99.90;;;;;;4994619;28;20045;-67
2023/05/06 02:29:04;;;;;;;15.45;9.38;;;12.20;99.90;;;;;;4993704;28;20037;-67
2023/05/06 02:31:33;;;;;;;14.32;9.93;;;12.20;99.90;;;;;;4993675;28;20077;-67
2023/05/06 02:34:01;;;;;;;13.95;10.02;;;12.40;99.90;;;;;;4994754;28;20049;-67
2023/05/06 02:36:30;;;;;;;16.15;10.95;;;;;;;;;;5009825;28;20042;-67
2023/05/06 02:39:01;;;;;;;13.70;9.98;;;12.20;99.90;;;;;;4993336;28;20527;-67
2023/05/06 02:41:32;;;;;;;13.38;9.77;;;12.20;99.90;;;;;;4993511;28;20041;-67
2023/05/06 02:44:03;;;;;;;14.25;10.57;;;11.90;99.90;;;;;;4993715;28;20038;-67
2023/05/06 02:46:40;;;;;;;16.40;11.55;;;12.10;99.90;;;;;;4994510;28;20496;-67
2023/05/06 02:49:08;;;;;;;12.00;9.40;;;12.10;99.90;;;;;;4993518;28;20080;-67
2023/05/06 02:51:43;;;;;;;13.05;10.30;;;;;;;;;;4993191;28;20038;-67
2023/05/06 02:54:14;;;;;;;13.73;10.57;;;11.90;99.90;;;;;;4993394;28;20050;-67
2023/05/06 02:56:45;;;;;;;15.20;10.35;;;12.00;99.90;;;;;;4993195;28;20042;-70
2023/05/06 02:59:10;;;;;;;17.67;11.40;;;11.80;99.90;;;;;;4994301;28;20038;-67
2023/05/06 03:02:01;;;;;;;15.93;11.32;;;12.10;99.90;;;;;;4992755;28;20050;-67
2023/05/06 03:04:32;;;;;;;17.98;11.88;;;11.80;99.90;;;;;;4993050;28;20468;-68
2023/05/06 03:07:16;;;;;;;14.50;10.43;;;11.80;99.90;;;;;;4993354;28;20125;-67
2023/05/06 03:09:45;;;;;;;17.85;11.07;;;11.90;99.90;;;;;;4993991;28;20034;-67
2023/05/06 03:12:24;;;;;;;14.43;10.18;;;11.60;99.90;;;;;;4993047;28;20097;-67
2023/05/06 03:14:52;;;;;;;14.30;10.32;;;11.70;99.90;;;;;;4992454;28;20043;-67
2023/05/06 03:17:23;;;;;;;14.82;10.18;;;11.70;99.90;;;;;;4992570;28;20042;-67
2023/05/06 03:19:52;;;;;;;12.35;10.07;;;11.60;99.90;;;;;;4991913;28;20038;-67
2023/05/06 03:22:24;;;;;;;11.98;9.32;;;11.50;99.90;;;;;;4992369;28;20038;-67
2023/05/06 03:25:16;;;;;;;14.23;9.80;;;11.60;99.90;;;;;;4992775;28;20049;-68
2023/05/06 03:28:02;;;;;;;15.30;10.57;;;11.70;99.90;;;;;;4994093;28;20112;-67
2023/05/06 03:30:36;;;;;;;11.77;9.85;;;11.60;99.90;;;;;;4992458;28;20038;-67
2023/05/06 03:33:10;;;;;;;12.48;10.23;;;11.60;99.90;;;;;;4993806;28;20038;-67
2023/05/06 03:35:35;;;;;;;14.68;10.88;;;11.60;99.90;;;;;;4993333;28;20053;-67
2023/05/06 03:38:06;;;;;;;15.65;10.95;;;11.60;99.90;;;;;;4993110;28;20038;-67
2023/05/06 03:40:35;;;;;;;15.68;11.43;;;11.60;99.90;;;;;;5029775;28;20040;-68
2023/05/06 03:43:03;;;;;;;11.82;9.82;;;11.60;99.90;;;;;;5010329;28;20097;-67
2023/05/06 03:45:43;;;;;;;14.40;9.80;;;11.60;99.90;;;;;;4995340;28;20073;-67
2023/05/06 03:48:23;;;;;;;12.10;9.00;;;11.60;99.90;;;;;;5011742;28;20048;-67
2023/05/06 03:51:16;;;;;;;17.00;11.18;;;11.70;99.90;;;;;;5011764;28;20044;-67
2023/05/06 03:53:45;;;;;;;12.05;9.70;;;11.60;99.90;;;;;;5010773;28;20046;-68
2023/05/06 03:56:12;;;;;;;15.20;10.30;;;11.60;99.90;;;;;;5011654;28;20474;-67
2023/05/06 03:58:44;;;;;;;15.27;10.75;;;11.60;99.90;;;;;;5011456;28;20045;-68
2023/05/06 04:01:20;;;;;;;15.93;9.90;;;11.50;99.90;;;;;;5011953;28;20033;-67
2023/05/06 04:03:46;;;;;;;11.95;9.77;;;11.70;99.90;;;;;;4995947;28;20135;-67
2023/05/06 04:06:15;;;;;;;12.98;10.15;;;11.80;99.90;;;;;;5011626;28;20092;-71
2023/05/06 04:08:49;;;;;;;14.32;10.07;;;11.70;99.90;;;;;;5011541;28;20041;-67
2023/05/06 04:11:16;;;;;;;13.20;9.80;;;;;;;;;;5011636;28;20537;-67
2023/05/06 04:13:52;;;;;;;12.45;9.63;;;11.60;99.90;;;;;;5011130;28;20037;-67
2023/05/06 04:16:35;;;;;;;;;;;;;;;;;;;;;
2023/05/06 04:19:21;;;;;;;14.73;11.23;;;11.80;99.90;;;;;;5011242;28;20041;-67
2023/05/06 04:21:50;;;;;;;16.25;10.43;;;11.80;99.90;;;;;;4991838;28;20038;-67
2023/05/06 04:24:21;;;;;;;14.38;9.90;;;11.80;99.90;;;;;;4975754;28;20045;-67
2023/05/06 04:26:48;;;;;;;16.08;10.73;;;11.90;99.90;;;;;;4991780;28;20041;-67
2023/05/06 04:29:16;;;;;;;14.15;10.40;;;12.00;99.90;;;;;;4991608;28;20129;-67
2023/05/06 04:31:52;;;;;;;15.40;11.25;;;11.90;99.90;;;;;;4975339;28;20129;-67
2023/05/06 04:34:19;;;;;;;13.77;9.80;;;11.80;99.90;;;;;;4992927;28;20046;-69
2023/05/06 04:36:46;;;;;;;15.43;10.63;;;;;;;;;;4991280;28;20512;-67
2023/05/06 04:39:13;;;;;;;14.60;10.15;;;12.00;99.90;;;;;;4975381;28;20045;-68
2023/05/06 04:41:39;;;;;;;14.07;10.55;;;12.00;99.90;;;;;;4991665;28;20069;-68
2023/05/06 04:44:07;;;;;;;15.13;11.30;;;11.90;99.90;;;;;;4991767;28;20547;-68
2023/05/06 04:46:54;;;;;;;16.10;12.60;;;12.00;99.90;;;;;;4992888;28;20038;-68
2023/05/06 04:49:31;;;;;;;14.43;10.98;;;12.10;99.90;;;;;;4975136;28;20500;-68
2023/05/06 04:51:59;;;;;;;14.00;10.73;;;12.00;99.90;;;;;;4991818;28;20128;-68
2023/05/06 04:54:27;;;;;;;17.50;12.05;;;;;;;;;;4991218;28;20574;-68
2023/05/06 04:56:56;;;;;;;16.20;11.57;;;11.90;99.90;;;;;;4991714;28;20039;-69
2023/05/06 04:59:30;;;;;;;17.20;12.60;;;12.10;99.90;;;;;;4991244;28;20042;-68
2023/05/06 05:02:03;;;;;;;15.60;11.63;;;12.10;99.90;;;;;;4975028;28;20103;-68
2023/05/06 05:04:34;;;;;;;;;;;12.00;99.90;;;;;;4992688;28;20039;-68
2023/05/06 05:07:20;;;;;;;15.90;11.35;;;12.00;99.90;;;;;;4991535;28;19918;-69
2023/05/06 05:09:49;;;;;;;17.17;11.02;;;12.20;99.90;;;;;;4993347;28;20105;-68
2023/05/06 05:12:38;;;;;;;18.67;12.48;;;12.40;99.90;;;;;;4975496;28;20129;-69
2023/05/06 05:15:09;;;;;;;18.77;12.07;;;12.20;99.90;;;;;;4975492;28;20042;-68
2023/05/06 05:17:36;;;;;;;23.00;13.25;;;12.30;99.90;;;;;;4991013;28;20116;-68
2023/05/06 05:20:05;;;;;;;18.95;13.40;;;12.40;99.90;;;;;;4991017;28;20034;-68
2023/05/06 05:22:31;;;;;;;19.73;14.50;;;12.20;99.90;;;;;;4991735;28;20038;-68
2023/05/06 05:24:59;;;;;;;20.55;12.77;;;12.20;99.90;;;;;;4990603;28;20065;-68
2023/05/06 05:27:25;;;;;;;21.00;12.63;;;12.40;99.90;;;;;;4991791;28;20411;-69
2023/05/06 05:29:51;;;;;;;21.20;13.38;;;12.30;99.90;;;;;;4990648;28;20042;-70
2023/05/06 05:32:24;;;;;;;19.02;12.85;;;12.30;99.90;;;;;;4991193;28;20093;-68
2023/05/06 05:35:01;;;;;;;16.05;12.25;;;12.20;99.90;;;;;;4991284;28;20134;-68
2023/05/06 05:37:40;;;;;;;23.60;14.65;;;12.40;99.90;;;;;;4992224;28;20046;-68
2023/05/06 05:40:22;;;;;;;19.52;13.18;;;12.50;99.90;;;;;;4974779;28;20069;-68
2023/05/06 05:42:51;;;;;;;16.13;11.50;;;12.50;99.90;;;;;;4992142;28;20049;-68
2023/05/06 05:45:20;;;;;;;23.10;12.60;;;12.40;99.90;;;;;;4993105;28;20054;-69
2023/05/06 05:47:53;;;;;;;19.65;13.13;;;12.40;99.90;;;;;;4978131;28;20052;-68
2023/05/06 05:50:34;;;;;;;19.08;12.77;;;12.60;99.90;;;;;;4994192;28;20403;-69
2023/05/06 05:53:06;;;;;;;18.77;12.43;;;12.60;99.90;;;;;;4994363;28;20049;-69
2023/05/06 05:55:38;;;;;;;19.05;13.02;;;;;;;;;;4995584;28;20054;-68
2023/05/06 05:58:33;;;;;;;16.52;11.95;;;12.50;99.90;;;;;;4995370;28;20423;-68
2023/05/06 06:01:08;;;;;;;16.75;11.38;;;12.60;99.90;;;;;;4994029;28;20117;-68
2023/05/06 06:04:04;;;;;;;22.85;13.02;;;12.60;99.90;;;;;;4995611;28;20046;-68
2023/05/06 06:06:32;;;;;;;22.17;13.38;;;12.60;99.90;;;;;;5010774;28;20120;-68
2023/05/06 06:09:37;;;;;;;19.00;12.98;;;12.70;99.90;;;;;;4998033;28;20511;-69
2023/05/06 06:12:11;;;;;;;17.80;12.07;;;12.50;99.90;;;;;;4995392;28;20030;-68
2023/05/06 06:14:47;;;;;;;17.73;12.55;;;;;;;;;;5042569;23;20053;-68
2023/05/06 06:20:08;;;;;;;19.45;13.63;;;12.80;99.90;;;;;;4996695;28;20167;-68
2023/05/06 06:22:37;;;;;;;16.33;11.75;;;13.00;99.90;;;;;;5027190;28;20037;-68
2023/05/06 06:25:06;;;;;;;15.65;11.40;;;12.90;99.90;;;;;;5009574;28;20073;-69
2023/05/06 06:27:35;;;;;;;22.52;13.60;;;13.20;99.90;;;;;;5000743;23;20288;-71
2023/05/06 06:30:01;;;;;;;17.02;12.52;;;12.80;99.90;;;;;;4968460;28;20718;-72
2023/05/06 06:32:27;;;;;;;19.23;13.10;;;13.10;99.90;;;;;;4970249;28;20606;-71
2023/05/06 06:34:52;;;;;;;17.65;12.85;;;13.10;99.90;;;;;;4970424;28;20042;-71
2023/05/06 06:37:18;;;;;;;17.65;13.45;;;13.10;99.90;;;;;;4957525;28;20505;-71
2023/05/06 06:39:44;;;;;;;17.15;11.93;;;13.10;99.90;;;;;;4948697;28;20105;-72
2023/05/06 06:42:09;;;;;;;19.55;13.63;;;13.20;99.90;;;;;;4958522;28;20039;-70
2023/05/06 06:44:35;;;;;;;20.83;15.77;;;13.20;99.90;;;;;;4950650;28;20051;-69
2023/05/06 06:47:01;;;;;;;20.50;14.57;;;13.40;99.90;;;;;;4951588;28;20043;-71
2023/05/06 06:49:27;;;;;;;16.92;12.40;;;13.20;99.90;;;;;;4949898;28;20133;-71
2023/05/06 06:51:53;;;;;;;17.42;13.27;;;13.30;99.90;;;;;;4956575;28;20181;-71
2023/05/06 06:54:18;;;;;;;21.67;14.13;;;13.40;99.90;;;;;;4934333;28;20043;-71
2023/05/06 06:56:44;;;;;;;16.95;12.90;;;13.50;99.90;;;;;;4949782;28;20057;-71
2023/05/06 06:59:10;;;;;;;22.45;14.68;;;13.60;99.90;;;;;;4950227;28;20039;-71
2023/05/06 07:01:35;;;;;;;18.83;13.48;;;13.50;99.90;;;;;;4946085;28;20046;-71
2023/05/06 07:04:01;;;;;;;17.63;13.55;;;13.70;99.90;;;;;;4946248;28;20500;-71
2023/05/06 07:06:26;;;;;;;16.85;13.48;;;13.50;99.90;;;;;;4931408;29;20086;-70
2023/05/06 07:08:52;;;;;;;21.90;15.57;;;14.00;99.90;;;;;;4963898;28;20047;-71
2023/05/06 07:11:18;;;;;;;21.17;15.23;;;13.90;99.90;;;;;;4950436;28;20376;-71
2023/05/06 07:13:43;;;;;;;19.33;14.07;;;13.90;99.90;;;;;;4949867;28;20065;-70
2023/05/06 07:16:09;;;;;;;16.27;11.65;;;14.10;99.90;;;;;;4948799;28;20058;-71
2023/05/06 07:18:34;;;;;;;21.27;15.32;;;14.20;99.90;;;;;;4934169;29;20404;-71
2023/05/06 07:21:00;;;;;;;24.70;14.48;;;14.30;99.90;;;;;;4949934;28;20076;-69
2023/05/06 07:23:26;;;;;;;20.20;14.00;;;14.50;99.90;;;;;;4951104;28;20035;-70
2023/05/06 07:25:51;;;;;;;21.17;14.27;;;14.60;99.90;;;;;;4949854;28;20035;-71
2023/05/06 07:28:24;;;;;;;20.77;15.13;;;;;;;;;;4933501;29;20051;-71
2023/05/06 07:30:51;;;;;;;20.77;14.27;;;;;;;;;;4951101;28;20043;-70
2023/05/06 07:33:18;;;;;;;20.05;14.40;;;;;;;;;;4949389;28;20445;-71
2023/05/06 07:35:43;;;;;;;16.33;11.40;;;15.20;99.90;;;;;;4949275;28;20416;-71
2023/05/06 07:38:11;;;;;;;17.48;12.50;;;;;;;;;;4949382;28;20035;-72
2023/05/06 07:40:36;;;;;;;18.48;12.57;;;15.30;99.90;;;;;;4949461;28;20531;-71
2023/05/06 07:43:18;;;;;;;16.70;11.90;;;;;;;;;;4949435;28;20039;-71
2023/05/06 07:45:44;;;;;;;17.40;12.05;;;15.40;99.90;;;;;;4950416;28;20046;-69
2023/05/06 07:48:09;;;;;;;15.93;10.38;;;15.50;99.90;;;;;;4949261;28;20484;-69
2023/05/06 07:50:35;;;;;;;12.82;10.00;;;15.80;99.90;;;;;;4949403;28;20416;-72
2023/05/06 07:53:01;;;;;;;13.68;9.98;;;15.50;99.90;;;;;;4944959;28;20058;-68
2023/05/06 07:55:27;;;;;;;13.15;9.73;;;16.50;99.90;;;;;;4949005;28;20544;-71
2023/05/06 07:57:52;;;;;;;16.33;9.27;;;15.90;99.90;;;;;;4949186;28;20041;-71
2023/05/06 08:00:18;;;;;;;12.55;9.43;;;16.00;99.90;;;;;;4948796;28;20440;-71
2023/05/06 08:02:46;;;;;;;13.30;8.68;;;16.10;99.90;;;;;;4948750;28;20146;-72
2023/05/06 08:05:12;;;;;;;10.45;8.40;;;16.40;99.90;;;;;;4951667;28;20071;-71
2023/05/06 08:07:40;;;;;;;10.00;7.97;;;16.30;99.90;;;;;;4948661;28;20509;-71
2023/05/06 08:10:06;;;;;;;14.48;9.60;;;16.30;99.90;;;;;;4948762;28;20039;-68
2023/05/06 08:12:33;;;;;;;12.50;9.70;;;16.20;99.90;;;;;;4932928;29;20535;-71
2023/05/06 08:14:59;;;;;;;12.23;9.65;;;16.40;99.90;;;;;;4948813;28;20051;-71
2023/05/06 08:17:25;;;;;;;13.25;9.70;;;;;;;;;;4948637;28;20418;-71
2023/05/06 08:19:50;;;;;;;13.30;9.80;;;16.60;99.90;;;;;;4932942;29;20035;-71
2023/05/06 08:22:16;;;;;;;14.98;10.25;;;16.50;99.90;;;;;;4959893;28;20034;-70
2023/05/06 08:24:42;;;;;;;12.05;9.82;;;16.40;99.90;;;;;;4949042;28;20106;-71
2023/05/06 08:27:07;;;;;;;13.48;9.48;;;16.90;99.90;;;;;;4948671;28;20067;-69
2023/05/06 08:29:33;;;;;;;12.40;9.68;;;16.50;99.90;;;;;;4932751;29;20054;-71
2023/05/06 08:31:59;;;;;;;12.23;9.45;;;16.90;99.90;;;;;;4932952;29;20102;-69
2023/05/06 08:34:24;;;;;;;14.38;10.18;;;17.00;99.90;;;;;;4948380;28;20047;-71
2023/05/06 08:36:50;;;;;;;14.57;10.38;;;17.00;99.90;;;;;;4948779;28;20039;-71
2023/05/06 08:39:17;;;;;;;15.60;9.68;;;17.20;99.90;;;;;;4932499;29;20118;-72
2023/05/06 08:41:47;;;;;;;11.68;9.75;;;18.30;99.90;;;;;;4932824;29;20046;-71
2023/05/06 08:44:17;;;;;;;10.80;8.93;;;17.40;99.90;;;;;;4948646;28;20043;-71
2023/05/06 08:46:46;;;;;;;13.57;9.52;;;17.30;99.90;;;;;;4948918;28;20035;-72
2023/05/06 08:49:12;;;;;;;12.00;9.20;;;17.40;99.90;;;;;;4948533;28;20039;-71
2023/05/06 08:51:42;;;;;;;10.20;8.27;;;17.60;99.90;;;;;;4948386;28;20110;-71
2023/05/06 08:54:10;;;;;;;12.73;9.15;;;18.20;99.90;;;;;;4948405;28;20693;-71
2023/05/06 08:56:38;;;;;;;13.32;9.95;;;17.70;99.90;;;;;;4949006;28;20083;-71
2023/05/06 08:59:07;;;;;;;11.93;9.45;;;17.80;99.90;;;;;;4932835;29;20047;-71
2023/05/06 09:01:34;;;;;;;13.23;9.48;;;;;;;;;;4948941;28;20090;-72
2023/05/06 09:04:00;;;;;;;12.02;9.20;;;;;;;;;;4948597;28;20031;-71
2023/05/06 09:06:27;;;;;;;13.88;9.10;;;;;;;;;;4947989;28;20472;-71
2023/05/06 09:08:52;;;;;;;12.63;8.23;;;18.10;99.90;;;;;;4948490;28;20055;-67
2023/05/06 09:11:27;;;;;;;12.48;8.68;;;18.00;99.90;;;;;;4948234;28;20039;-71
2023/05/06 09:14:10;;;;;;;16.55;9.27;;;18.50;99.90;;;;;;4932415;29;20126;-71
2023/05/06 09:16:36;;;;;;;;;;;19.10;99.90;;;;;;4973449;28;20074;-72
2023/05/06 09:19:02;;;;;;;10.90;8.02;;;;;;;;;;4973622;28;19972;-72
2023/05/06 09:21:33;;;;;;;10.57;8.35;;;18.80;99.90;;;;;;4951927;28;20051;-71
2023/05/06 09:23:59;;;;;;;12.23;9.02;;;18.90;99.90;;;;;;4952188;28;20408;-71
2023/05/06 09:26:27;;;;;;;11.38;9.15;;;18.80;99.90;;;;;;4951824;28;20094;-71
2023/05/06 09:28:53;;;;;;;10.98;8.45;;;18.90;99.90;;;;;;4959749;28;20047;-72
2023/05/06 09:31:19;;;;;;;11.82;8.10;;;19.00;99.90;;;;;;4951484;28;20509;-68
2023/05/06 09:33:45;;;;;;;12.10;8.48;;;18.90;99.90;;;;;;4935976;28;20106;-73
2023/05/06 09:36:12;;;;;;;9.40;7.55;;;19.90;99.90;;;;;;4952841;28;20600;-73
2023/05/06 09:38:39;;;;;;;12.40;8.65;;;19.50;99.90;;;;;;4951685;28;20050;-71
2023/05/06 09:41:11;;;;;;;14.57;9.40;;;19.40;99.90;;;;;;4951679;28;20049;-72
2023/05/06 09:43:40;;;;;;;10.98;8.93;;;;;;;;;;4973720;28;20043;-72
2023/05/06 09:46:07;;;;;;;14.25;9.30;;;19.70;99.90;;;;;;4935677;28;20106;-71
2023/05/06 09:48:34;;;;;;;13.48;7.90;;;20.10;99.90;;;;;;4951616;28;20035;-72
2023/05/06 09:51:00;;;;;;;13.73;8.70;;;20.50;99.90;;;;;;4935459;29;20043;-72
2023/05/06 09:53:26;;;;;;;12.52;9.73;;;19.70;99.90;;;;;;4951415;28;20050;-72
2023/05/06 09:55:55;;;;;;;12.77;8.85;;;19.50;99.90;;;;;;4935355;28;20047;-72
2023/05/06 09:58:21;;;;;;;11.45;9.30;;;19.10;99.90;;;;;;4951082;28;20031;-71
2023/05/06 10:00:48;;;;;;;13.65;9.27;;;18.90;99.90;;;;;;4951630;28;20288;-71
2023/05/06 10:03:15;;;;;;;14.30;8.98;;;18.70;99.90;;;;;;4935482;28;20552;-72
2023/05/06 10:05:41;;;;;;;11.05;7.90;;;19.40;99.90;;;;;;4951356;28;20066;-72
2023/05/06 10:08:09;;;;;;;13.45;8.63;;;18.90;99.90;;;;;;4935208;28;20077;-72
2023/05/06 10:10:36;;;;;;;8.32;7.40;;;18.70;99.90;;;;;;4935223;29;20126;-72
2023/05/06 10:13:03;;;;;;;9.27;7.78;;;19.10;99.90;;;;;;4959341;28;20038;-71
2023/05/06 10:15:31;;;;;;;11.27;8.85;;;19.40;99.90;;;;;;4935020;29;20121;-72
2023/05/06 10:17:58;;;;;;;14.88;8.50;;;19.70;99.90;;;;;;4951143;28;20039;-72
2023/05/06 10:20:26;;;;;;;15.63;8.68;;;19.80;99.90;;;;;;4950735;28;20501;-71
2023/05/06 10:23:04;;;;;;;12.75;8.65;;;19.80;99.90;;;;;;4951288;28;20046;-72
2023/05/06 10:25:41;;;;;;;12.57;8.32;;;19.60;99.90;;;;;;4950612;28;20043;-72
2023/05/06 10:28:09;;;;;;;9.35;7.57;;;20.20;99.90;;;;;;4950919;28;20047;-72
2023/05/06 10:30:35;;;;;;;13.02;7.47;;;19.70;99.90;;;;;;4950457;28;20039;-72
2023/05/06 10:33:06;;;;;;;9.48;7.05;;;19.90;99.90;;;;;;4950921;28;20043;-72
2023/05/06 10:35:54;;;;;;;10.75;7.72;;;19.60;99.90;;;;;;4950658;28;20042;-72
2023/05/06 10:38:33;;;;;;;8.73;6.97;;;19.30;99.90;;;;;;4935028;29;20055;-72
2023/05/06 10:40:59;;;;;;;10.18;7.10;;;19.40;99.90;;;;;;4934519;28;20490;-70
2023/05/06 10:43:29;;;;;;;11.00;7.28;;;19.10;99.90;;;;;;4961880;28;20046;-72
2023/05/06 10:46:10;;;;;;;10.48;8.05;;;19.50;99.90;;;;;;4950873;28;20062;-72
2023/05/06 10:48:37;;;;;;;10.90;8.40;;;19.00;99.90;;;;;;4950390;28;20134;-72
2023/05/06 10:51:15;;;;;;;11.27;9.45;;;18.80;99.90;;;;;;4979701;28;20524;-72
2023/05/06 10:54:01;;;;;;;14.38;8.15;;;18.80;99.90;;;;;;4947635;28;20420;-73
2023/05/06 10:56:28;;;;;;;14.70;8.98;;;18.60;99.90;;;;;;4950160;28;20497;-71
2023/05/06 10:58:55;;;;;;;15.55;8.98;;;18.50;99.90;;;;;;4934410;29;20136;-72
2023/05/06 11:01:24;;;;;;;14.25;9.73;;;18.70;99.90;;;;;;4950010;28;20047;-72
2023/05/06 11:03:50;;;;;;;14.20;9.57;;;18.50;99.90;;;;;;4950355;28;20094;-72
2023/05/06 11:06:35;;;;;;;16.55;11.05;;;18.30;99.90;;;;;;4933828;29;20042;-68
2023/05/06 11:09:03;;;;;;;16.92;11.70;;;18.90;99.90;;;;;;4933910;28;20154;-70
2023/05/06 11:11:53;;;;;;;16.30;11.00;;;18.90;99.90;;;;;;4950206;28;20457;-72
2023/05/06 11:14:39;;;;;;;17.92;10.15;;;18.30;99.90;;;;;;4950068;28;20062;-72
2023/05/06 11:17:06;;;;;;;11.65;8.43;;;18.00;99.90;;;;;;4951542;28;20176;-72
2023/05/06 11:19:34;;;;;;;9.65;8.02;;;18.20;99.90;;;;;;4952230;28;20043;-72
2023/05/06 11:22:01;;;;;;;12.25;9.02;;;18.20;99.90;;;;;;4951042;28;20477;-70
2023/05/06 11:24:37;;;;;;;11.15;7.72;;;18.10;99.90;;;;;;4950296;28;20067;-72
2023/05/06 11:27:02;;;;;;;13.25;7.65;;;18.20;99.90;;;;;;4950414;28;20521;-72
2023/05/06 11:29:28;;;;;;;11.32;7.90;;;18.00;99.90;;;;;;4949851;28;20071;-72
2023/05/06 11:31:54;;;;;;;12.02;7.00;;;18.00;99.90;;;;;;4950854;28;20043;-72
2023/05/06 11:34:26;;;;;;;13.25;7.63;;;18.00;99.90;;;;;;4949687;28;20076;-72
2023/05/06 11:37:06;;;;;;;8.98;5.50;;;17.90;99.90;;;;;;4949416;28;20575;-72
2023/05/06 11:39:34;;;;;;;10.90;7.20;;;18.00;99.90;;;;;;4949156;28;20039;-72
2023/05/06 11:42:05;;;;;;;9.13;6.90;;;18.30;99.90;;;;;;4949208;28;20039;-71
2023/05/06 11:44:38;;;;;;;14.57;7.72;;;17.60;99.90;;;;;;4949272;28;20035;-71
2023/05/06 11:47:05;;;;;;;8.50;6.22;;;17.60;99.90;;;;;;4933263;29;20043;-68
2023/05/06 11:49:41;;;;;;;10.88;6.78;;;17.50;99.90;;;;;;4949024;28;20517;-72
2023/05/06 11:52:09;;;;;;;9.73;6.43;;;17.60;99.90;;;;;;4961083;28;20042;-72
2023/05/06 11:54:37;;;;;;;9.32;6.15;;;18.10;99.90;;;;;;4949364;28;20089;-71
2023/05/06 11:57:03;;;;;;;13.05;6.65;;;18.10;99.90;;;;;;4949018;28;20110;-72
2023/05/06 11:59:30;;;;;;;10.32;7.25;;;17.80;99.90;;;;;;4948988;28;20039;-72
2023/05/06 12:01:57;;;;;;;9.82;6.68;;;17.90;99.90;;;;;;4949542;28;20123;-72
2023/05/06 12:04:23;;;;;;;8.07;5.68;;;17.50;99.90;;;;;;4949215;28;20528;-72
2023/05/06 12:06:48;;;;;;;7.20;5.22;;;17.60;99.90;;;;;;4954917;28;20133;-72
2023/05/06 12:09:14;;;;;;;7.40;4.53;;;17.90;99.90;;;;;;4951459;28;20516;-72
2023/05/06 12:11:42;;;;;;;5.18;2.80;;;18.30;99.90;;;;;;4948879;28;20472;-72
2023/05/06 12:14:09;;;;;;;6.50;3.72;;;18.30;99.90;;;;;;4949024;28;20038;-72
2023/05/06 12:16:35;;;;;;;6.00;3.25;;;18.30;99.90;;;;;;4949021;28;20129;-72
2023/05/06 12:19:02;;;;;;;6.80;3.15;;;18.40;99.90;;;;;;4948874;28;20533;-70
2023/05/06 12:21:28;;;;;;;6.57;3.30;;;18.20;99.90;;;;;;4949123;28;20575;-73
2023/05/06 12:23:59;;;;;;;6.78;3.70;;;18.50;99.90;;;;;;4949084;28;20031;-71
2023/05/06 12:26:30;;;;;;;9.02;3.75;;;18.00;99.90;;;;;;4948453;28;20539;-72
2023/05/06 12:31:45;;;;;;;;;;;;;;;;;;;;;
2023/05/06 12:35:08;;;;;;;;;;;;;;;;;;;;;
2023/05/06 12:38:14;;;;;;;6.60;2.85;;;17.80;99.90;;;;;;4948164;28;20047;-69
2023/05/06 12:41:22;;;;;;;5.03;3.03;;;18.40;99.90;;;;;;4966522;28;20054;-68
2023/05/06 12:44:31;;;;;;;3.72;2.60;;;18.50;99.90;;;;;;4978207;28;20041;-69
2023/05/06 12:47:20;;;;;;;3.47;2.50;;;18.40;99.90;;;;;;4987510;28;20054;-69
2023/05/06 12:49:53;;;;;;;3.80;2.28;;;18.90;99.90;;;;;;4968926;28;20035;-69
2023/05/06 12:52:27;;;;;;;4.88;1.92;;;19.20;99.90;;;;;;4980972;28;20065;-69
2023/05/06 12:54:53;;;;;;;4.38;1.65;;;19.60;99.90;;;;;;4972123;28;20038;-69
2023/05/06 12:57:31;;;;;;;5.78;2.35;;;19.30;99.90;;;;;;4973558;28;20496;-69
2023/05/06 12:59:59;;;;;;;2.97;1.98;;;19.10;99.90;;;;;;4955420;28;20050;-69
2023/05/06 13:02:30;;;;;;;2.70;1.60;;;18.90;99.90;;;;;;4973513;28;20066;-69
2023/05/06 13:05:23;;;;;;;3.78;1.85;;;19.30;99.90;;;;;;4957260;28;20065;-69
2023/05/06 13:07:55;;;;;;;4.00;1.75;;;19.20;99.90;;;;;;4973264;28;20124;-69
2023/05/06 13:10:39;;;;;;;3.63;2.05;;;19.30;99.90;;;;;;4982700;28;20126;-69
2023/05/06 13:13:06;;;;;;;3.55;2.25;;;19.70;99.90;;;;;;4973970;28;20050;-69
2023/05/06 13:16:06;;;;;;;4.13;2.42;;;19.60;99.90;;;;;;5001692;28;20054;-69